Time;durP1;ratioP1;P1;durP2;ratioP2;P2;SDS_P1;SDS_P2;PMS_P1;PMS_P2;Temp;Humidity;BMP_temperature;BMP_pressure;BME280_temperature;BME280_humidity;BME280_pressure;Samples;Min_cycle;Max_cycle;Signal;HPM_P1;HPM_P2
2022/01/04 00:00:34;;;;;;;;;64.33;50.67;;;;;8.09;82.57;99078.47;5082392;27;45410;-64
2022/01/04 00:02:59;;;;;;;;;56.67;48.00;;;;;8.09;82.58;99065.34;5073736;27;45411;-65
2022/01/04 00:05:25;;;;;;;;;64.67;50.33;;;;;8.10;82.68;99059.19;5076451;28;45402;-64
2022/01/04 00:07:50;;;;;;;;;60.33;47.33;;;;;8.11;82.51;99055.66;5074318;28;45337;-65
2022/01/04 00:10:21;;;;;;;;;62.00;48.67;;;;;8.12;82.71;99058.25;5072346;28;45998;-64
2022/01/04 00:15:31;;;;;;;;;56.67;45.33;;;;;8.13;82.46;99048.59;5073619;28;45384;-65
2022/01/04 00:17:56;;;;;;;;;59.33;49.00;;;;;8.13;82.26;99051.22;5072384;28;45383;-64
2022/01/04 00:20:22;;;;;;;;;57.33;46.00;;;;;8.15;82.63;99052.03;5075821;28;45580;-65
2022/01/04 00:22:48;;;;;;;;;58.33;46.33;;;;;8.16;82.33;99052.00;5071475;28;45460;-65
2022/01/04 00:25:15;;;;;;;;;61.67;48.00;;;;;8.17;82.55;99056.34;5072739;28;45326;-64
2022/01/04 00:27:41;;;;;;;;;60.67;47.33;;;;;8.19;82.36;99056.28;5073861;28;45388;-65
2022/01/04 00:30:07;;;;;;;;;59.67;49.33;;;;;8.21;82.43;99036.09;5072124;28;45502;-65
2022/01/04 00:32:32;;;;;;;;;65.00;51.67;;;;;8.23;82.43;99027.22;5073147;28;45740;-65
2022/01/04 00:34:58;;;;;;;;;55.67;46.33;;;;;8.26;82.32;99024.50;5072245;28;45439;-65
2022/01/04 00:37:23;;;;;;;;;57.33;47.00;;;;;8.28;82.42;99029.72;5073593;28;45641;-65
2022/01/04 00:39:48;;;;;;;;;60.00;48.67;;;;;8.27;82.01;99034.13;5073752;28;45700;-65
2022/01/04 00:42:14;;;;;;;;;61.00;50.00;;;;;8.27;81.98;99031.50;5075127;27;45431;-64
2022/01/04 00:44:39;;;;;;;;;57.67;44.67;;;;;8.25;81.64;99035.06;5073514;28;45394;-65
2022/01/04 00:47:08;;;;;;;;;62.33;49.33;;;;;8.15;81.90;99024.00;5075434;27;45494;-65
2022/01/04 00:49:33;;;;;;;;;58.33;48.33;;;;;8.01;81.89;99016.56;5070994;28;46252;-65
2022/01/04 00:52:01;;;;;;;;;67.67;50.00;;;;;7.95;82.44;99006.25;5075585;28;45363;-65
2022/01/04 00:54:26;;;;;;;;;62.00;47.33;;;;;7.96;82.65;99002.72;5068440;28;45812;-65
2022/01/04 00:56:52;;;;;;;;;56.00;45.67;;;;;7.99;82.74;98979.00;5075637;28;45507;-65
2022/01/04 00:59:17;;;;;;;;;61.00;49.67;;;;;8.00;82.74;98970.22;5066438;28;45506;-65
2022/01/04 01:01:43;;;;;;;;;59.33;46.67;;;;;8.04;82.85;98986.75;5075262;28;45432;-65
2022/01/04 01:04:09;;;;;;;;;60.67;48.67;;;;;8.05;82.72;98984.03;5069206;28;45422;-65
2022/01/04 01:06:35;;;;;;;;;55.00;45.67;;;;;8.09;82.62;98973.44;5075696;28;45557;-64
2022/01/04 01:09:01;;;;;;;;;62.67;48.00;;;;;8.10;82.59;98964.66;5068707;28;46020;-65
2022/01/04 01:11:26;;;;;;;;;61.33;48.67;;;;;8.12;82.62;98960.22;5075169;28;45415;-65
2022/01/04 01:13:52;;;;;;;;;61.00;49.00;;;;;8.13;82.71;98954.94;5068900;28;45419;-65
2022/01/04 01:16:19;;;;;;;;;60.33;48.67;;;;;8.17;82.85;98950.44;5075034;28;45382;-65
2022/01/04 01:18:45;;;;;;;;;55.00;46.67;;;;;8.19;82.37;98946.88;5068223;28;46299;-64
2022/01/04 01:21:10;;;;;;;;;60.67;48.33;;;;;8.21;82.34;98938.94;5074421;28;45933;-64
2022/01/04 01:23:37;;;;;;;;;64.67;51.33;;;;;8.21;82.21;98946.81;5068762;28;45413;-65
2022/01/04 01:26:05;;;;;;;;;59.67;47.33;;;;;8.22;82.47;98945.88;5070341;28;45369;-65
2022/01/04 01:28:31;;;;;;;;;57.33;47.00;;;;;8.22;82.26;98940.63;5069470;28;45477;-65
2022/01/04 01:30:56;;;;;;;;;59.67;47.67;;;;;8.23;82.25;98931.84;5072371;28;45339;-64
2022/01/04 01:33:24;;;;;;;;;60.67;48.00;;;;;8.21;82.14;98937.13;5071101;28;45606;-64
2022/01/04 01:35:50;;;;;;;;;54.67;45.00;;;;;8.23;82.14;98943.19;5073275;28;45352;-67
2022/01/04 01:38:17;;;;;;;;;61.33;48.00;;;;;8.24;82.21;98937.03;5071544;28;46105;-64
2022/01/04 01:40:43;;;;;;;;;58.00;47.00;;;;;8.26;81.90;98929.97;5065895;28;45361;-64
2022/01/04 01:43:09;;;;;;;;;59.67;48.00;;;;;8.27;82.10;98928.22;5072706;28;45549;-64
2022/01/04 01:45:35;;;;;;;;;59.33;45.67;;;;;8.28;82.16;98919.41;5066343;27;45448;-64
2022/01/04 01:48:01;;;;;;;;;60.67;47.67;;;;;8.31;81.96;98922.81;5071653;27;46408;-65
2022/01/04 01:50:27;;;;;;;;;61.33;48.33;;;;;8.33;82.11;98917.53;5067464;28;45387;-65
2022/01/04 01:52:54;;;;;;;;;57.67;47.00;;;;;8.36;81.76;98912.19;5071554;28;45491;-65
2022/01/04 01:55:21;;;;;;;;;55.00;45.33;;;;;8.37;81.60;98904.25;5069121;28;45440;-65
2022/01/04 01:57:48;;;;;;;;;54.33;44.67;;;;;8.42;81.68;98908.47;5070766;28;46394;-65
2022/01/04 02:00:16;;;;;;;;;55.00;43.67;;;;;8.43;81.47;98911.03;5062611;28;45356;-65
2022/01/04 02:02:42;;;;;;;;;56.00;46.67;;;;;8.44;81.27;98911.91;5070864;28;45376;-65
2022/01/04 02:05:08;;;;;;;;;62.67;49.00;;;;;8.43;81.54;98903.16;5070246;28;45413;-64
2022/01/04 02:07:35;;;;;;;;;56.33;47.33;;;;;8.44;81.18;98899.63;5072627;28;46258;-65
2022/01/04 02:10:04;;;;;;;;;57.67;47.00;;;;;8.43;81.36;98900.53;5071978;28;45623;-64
2022/01/04 02:12:33;;;;;;;;;58.00;48.33;;;;;8.40;81.26;98892.75;5072456;28;45392;-65
2022/01/04 02:14:59;;;;;;;;;60.00;47.67;;;;;8.39;81.35;98893.66;5069674;28;45657;-64
2022/01/04 02:17:24;;;;;;;;;61.67;47.67;;;;;8.36;81.32;98881.53;5072581;27;45435;-64
2022/01/04 02:19:53;;;;;;;;;57.33;46.33;;;;;8.33;81.15;98881.63;5065279;28;45496;-64
2022/01/04 02:22:19;;;;;;;;;58.33;47.00;;;;;8.28;81.38;98880.88;5073283;28;45345;-64
2022/01/04 02:24:44;;;;;;;;;56.67;46.00;;;;;8.25;81.39;98880.13;5069420;28;45373;-64
2022/01/04 02:27:10;;;;;;;;;55.33;46.00;;;;;8.24;81.22;98878.41;5073891;28;45340;-64
2022/01/04 02:29:36;;;;;;;;;56.00;45.33;;;;;8.22;81.26;98883.72;5068832;28;45499;-64
2022/01/04 02:32:01;;;;;;;;;59.33;47.00;;;;;8.19;81.59;98865.47;5073854;28;45408;-64
2022/01/04 02:34:27;;;;;;;;;60.67;46.33;;;;;8.18;81.72;98852.38;5072333;28;46080;-64
2022/01/04 02:36:52;;;;;;;;;55.67;45.33;;;;;8.17;81.63;98848.03;5076940;28;46138;-65
2022/01/04 02:39:17;;;;;;;;;60.00;47.67;;;;;8.13;81.83;98828.91;5075313;28;45455;-65
2022/01/04 02:41:43;;;;;;;;;58.67;46.33;;;;;8.13;81.53;98831.53;5076816;28;46009;-64
2022/01/04 02:44:08;;;;;;;;;55.33;45.33;;;;;8.11;81.95;98835.97;5068421;28;45422;-65
2022/01/04 02:46:34;;;;;;;;;49.00;40.67;;;;;8.11;81.72;98833.34;5075443;28;45371;-65
2022/01/04 02:48:59;;;;;;;;;48.67;40.00;;;;;8.10;81.54;98822.91;5069504;28;45175;-64
2022/01/04 02:51:25;;;;;;;;;51.00;43.33;;;;;8.10;81.27;98833.41;5076027;28;45334;-64
2022/01/04 02:53:50;;;;;;;;;48.33;39.67;;;;;8.10;81.42;98828.16;5071558;28;45573;-64
2022/01/04 02:56:16;;;;;;;;;38.33;34.00;;;;;8.09;81.54;98827.28;5077454;28;45571;-64
2022/01/04 02:58:42;;;;;;;;;50.67;41.00;;;;;8.07;81.33;98811.59;5070929;28;45407;-64
2022/01/04 03:01:07;;;;;;;;;47.67;40.00;;;;;8.07;81.39;98795.84;5075484;28;45388;-64
2022/01/04 03:03:33;;;;;;;;;51.67;42.00;;;;;8.07;81.29;98787.09;5069102;28;45435;-65
2022/01/04 03:05:59;;;;;;;;;46.33;38.00;;;;;8.06;81.27;98799.38;5077147;28;45456;-64
2022/01/04 03:08:25;;;;;;;;;46.67;39.67;;;;;8.06;81.42;98809.88;5070951;28;45387;-64
2022/01/04 03:10:50;;;;;;;;;52.67;40.67;;;;;8.07;81.39;98793.22;5077396;28;45353;-65
2022/01/04 03:13:16;;;;;;;;;52.00;43.00;;;;;8.09;81.27;98794.94;5070945;28;45558;-65
2022/01/04 03:15:45;;;;;;;;;50.33;40.00;;;;;8.12;81.32;98797.44;5077057;28;46182;-65
2022/01/04 03:18:11;;;;;;;;;48.33;39.00;;;;;8.12;81.03;98787.81;5071290;28;45364;-65
2022/01/04 03:20:39;;;;;;;;;41.00;37.67;;;;;8.12;80.94;98793.06;5069899;27;45475;-65
2022/01/04 03:23:09;;;;;;;;;44.33;39.33;;;;;8.12;81.22;98794.81;5087959;27;45405;-65
2022/01/04 03:25:35;;;;;;;;;52.33;42.33;;;;;8.10;81.18;98788.75;5075258;28;46001;-65
2022/01/04 03:28:02;;;;;;;;;44.00;37.00;;;;;8.07;81.23;98790.59;5072659;28;45403;-65
2022/01/04 03:30:27;;;;;;;;;55.00;43.67;;;;;8.03;81.28;98786.38;5073589;28;45384;-65
2022/01/04 03:32:54;;;;;;;;;53.67;44.00;;;;;8.01;81.50;98785.56;5073509;28;45390;-65
2022/01/04 03:35:22;;;;;;;;;52.00;42.00;;;;;8.00;81.85;98772.50;5075131;28;46237;-64
2022/01/04 03:37:50;;;;;;;;;53.33;41.67;;;;;8.02;81.76;98776.78;5074503;28;45551;-64
2022/01/04 03:40:15;;;;;;;;;47.67;41.33;;;;;8.03;81.81;98773.25;5067736;28;45433;-65
2022/01/04 03:42:41;;;;;;;;;45.33;37.67;;;;;8.04;81.80;98769.69;5074686;28;45497;-64
2022/01/04 03:45:07;;;;;;;;;50.67;39.33;;;;;8.08;81.69;98770.44;5076571;28;46402;-64
2022/01/04 03:47:33;;;;;;;;;50.67;39.67;;;;;8.07;81.46;98761.72;5074380;27;45552;-64
2022/01/04 03:49:58;;;;;;;;;52.00;41.67;;;;;8.05;81.50;98765.28;5068852;28;45443;-65
2022/01/04 03:52:24;;;;;;;;;58.33;45.33;;;;;8.04;81.81;98766.22;5075726;27;45568;-64
2022/01/04 03:54:49;;;;;;;;;56.33;46.00;;;;;8.04;81.93;98768.84;5067367;28;45504;-65
2022/01/04 03:57:15;;;;;;;;;53.67;44.67;;;;;8.06;81.90;98769.63;5076297;28;45295;-64
2022/01/04 03:59:40;;;;;;;;;51.67;43.33;;;;;8.02;81.93;98763.66;5068362;28;45411;-65
2022/01/04 04:02:05;;;;;;;;;54.67;46.00;;;;;7.97;82.01;98754.22;5076182;28;45474;-64
2022/01/04 04:04:31;;;;;;;;;56.00;45.00;;;;;7.89;82.39;98758.88;5069647;28;45607;-65
2022/01/04 04:06:56;;;;;;;;;43.33;38.33;;;;;7.86;82.56;98756.38;5076565;28;45301;-65
2022/01/04 04:09:22;;;;;;;;;57.33;47.00;;;;;7.84;82.02;98759.06;5069831;28;45399;-66
2022/01/04 04:11:47;;;;;;;;;57.67;47.33;;;;;7.84;82.71;98755.56;5076173;28;45313;-64
2022/01/04 04:14:13;;;;;;;;;59.00;47.33;;;;;7.83;82.58;98752.09;5069596;28;45423;-64
2022/01/04 04:16:38;;;;;;;;;56.33;45.00;;;;;7.81;82.90;98739.94;5075804;28;45380;-64
2022/01/04 04:19:04;;;;;;;;;56.67;45.33;;;;;7.77;83.03;98749.66;5069796;28;45434;-65
2022/01/04 04:21:29;;;;;;;;;58.33;45.67;;;;;7.72;83.28;98751.59;5074471;28;45371;-64
2022/01/04 04:23:55;;;;;;;;;58.33;47.67;;;;;7.65;83.54;98747.47;5070508;28;45392;-64
2022/01/04 04:26:20;;;;;;;;;52.33;43.67;;;;;7.58;83.59;98743.34;5072246;28;45397;-64
2022/01/04 04:28:45;;;;;;;;;59.33;50.00;;;;;7.53;83.64;98737.41;5071369;28;45471;-64
2022/01/04 04:31:11;;;;;;;;;51.33;43.67;;;;;7.50;83.35;98738.38;5073122;28;45372;-64
2022/01/04 04:33:36;;;;;;;;;54.67;44.67;;;;;7.48;83.71;98726.22;5071837;28;45587;-64
2022/01/04 04:36:02;;;;;;;;;52.00;44.33;;;;;7.47;83.74;98727.13;5073354;28;46020;-64
2022/01/04 04:38:28;;;;;;;;;51.33;42.00;;;;;7.50;83.64;98719.16;5072310;28;45395;-64
2022/01/04 04:40:55;;;;;;;;;52.67;42.00;;;;;7.52;83.55;98722.59;5068481;28;45369;-64
2022/01/04 04:43:21;;;;;;;;;52.00;41.33;;;;;7.53;83.38;98729.53;5073112;28;45462;-64
2022/01/04 04:45:46;;;;;;;;;53.67;45.00;;;;;7.54;83.43;98726.84;5068437;28;45415;-65
2022/01/04 04:48:12;;;;;;;;;50.33;41.67;;;;;7.54;83.56;98715.53;5070317;28;45452;-65
2022/01/04 04:50:38;;;;;;;;;43.67;39.00;;;;;7.55;83.52;98709.34;5074810;28;45444;-65
2022/01/04 04:53:04;;;;;;;;;52.00;40.67;;;;;7.59;83.03;98703.09;5072237;28;46351;-65
2022/01/04 04:55:30;;;;;;;;;51.33;42.67;;;;;7.62;83.02;98700.34;5069345;28;45432;-64
2022/01/04 04:57:56;;;;;;;;;47.00;38.67;;;;;7.68;83.12;98708.88;5071064;28;45362;-65
2022/01/04 05:00:21;;;;;;;;;54.00;43.67;;;;;7.72;83.07;98694.72;5069650;28;45513;-65
2022/01/04 05:02:47;;;;;;;;;57.33;43.33;;;;;7.76;83.33;98705.97;5100098;27;45602;-64
2022/01/04 05:05:12;;;;;;;;;52.33;40.33;;;;;7.79;83.41;98703.25;5070499;28;45478;-64
2022/01/04 05:07:38;;;;;;;;;58.00;45.67;;;;;7.82;83.14;98692.66;5071961;28;45463;-64
2022/01/04 05:10:05;;;;;;;;;54.00;41.67;;;;;7.86;83.33;98683.75;5070754;28;45377;-64
2022/01/04 05:12:30;;;;;;;;;56.33;45.33;;;;;7.87;83.37;98677.59;5071991;28;46155;-64
2022/01/04 05:14:56;;;;;;;;;58.33;45.00;;;;;7.90;83.32;98685.34;5070439;28;45502;-64
2022/01/04 05:17:21;;;;;;;;;55.33;44.33;;;;;7.93;83.31;98684.38;5074512;28;45591;-64
2022/01/04 05:19:47;;;;;;;;;58.33;44.33;;;;;7.94;83.07;98680.84;5066126;28;45413;-64
2022/01/04 05:22:13;;;;;;;;;51.67;43.33;;;;;7.93;82.92;98681.75;5073963;28;45615;-64
2022/01/04 05:24:38;;;;;;;;;57.33;45.33;;;;;7.93;83.09;98672.09;5067923;28;45497;-64
2022/01/04 05:27:04;;;;;;;;;57.00;42.67;;;;;7.96;82.93;98669.38;5074216;27;45352;-64
2022/01/04 05:29:30;;;;;;;;;50.67;41.33;;;;;7.98;82.90;98664.94;5070433;28;45423;-64
2022/01/04 05:31:55;;;;;;;;;53.00;43.67;;;;;8.02;82.91;98655.19;5073545;28;46011;-64
2022/01/04 05:34:21;;;;;;;;;55.00;44.00;;;;;8.04;82.96;98662.06;5070653;28;45425;-65
2022/01/04 05:36:46;;;;;;;;;54.33;44.33;;;;;8.06;83.09;98665.47;5073488;28;45328;-64
2022/01/04 05:39:12;;;;;;;;;53.00;44.67;;;;;8.08;82.72;98654.94;5065594;28;45425;-65
2022/01/04 05:41:37;;;;;;;;;54.00;44.67;;;;;8.10;82.96;98649.63;5073242;28;45554;-64
2022/01/04 05:44:03;;;;;;;;;54.00;44.67;;;;;8.09;82.85;98653.16;5072737;28;45471;-64
2022/01/04 05:46:28;;;;;;;;;55.00;45.33;;;;;8.07;83.00;98659.31;5074226;28;45372;-64
2022/01/04 05:48:54;;;;;;;;;53.67;41.33;;;;;8.07;82.98;98663.72;5068558;28;45431;-64
2022/01/04 05:51:19;;;;;;;;;54.00;45.00;;;;;8.07;82.85;98664.56;5073887;28;45501;-64
2022/01/04 05:53:45;;;;;;;;;53.00;41.67;;;;;8.05;82.65;98666.41;5067934;28;45439;-65
2022/01/04 05:56:10;;;;;;;;;56.33;44.67;;;;;8.04;82.69;98666.47;5073166;28;45273;-64
2022/01/04 05:58:36;;;;;;;;;48.33;41.33;;;;;8.00;82.75;98652.59;5068152;28;45462;-65
2022/01/04 06:01:01;;;;;;;;;57.33;44.67;;;;;7.98;82.71;98656.19;5074256;28;45602;-64
2022/01/04 06:03:27;;;;;;;;;53.00;43.67;;;;;7.97;82.88;98641.34;5070134;28;45470;-64
2022/01/04 06:05:54;;;;;;;;;58.67;47.00;;;;;7.95;82.63;98636.16;5072516;28;45402;-64
2022/01/04 06:08:21;;;;;;;;;53.33;44.00;;;;;7.97;82.68;98638.72;5068988;27;45499;-65
2022/01/04 06:10:51;;;;;;;;;54.67;45.33;;;;;7.95;83.21;98638.78;5075659;28;45375;-64
2022/01/04 06:16:02;;;;;;;;;54.33;45.67;;;;;7.96;83.12;98632.63;5077415;28;45399;-64
2022/01/04 06:18:27;;;;;;;;;57.00;44.67;;;;;7.98;83.29;98633.44;5070682;28;45306;-64
2022/01/04 06:20:55;;;;;;;;;55.00;44.00;;;;;7.99;83.10;98627.28;5072190;28;45872;-64
2022/01/04 06:23:21;;;;;;;;;56.00;45.67;;;;;8.00;83.18;98631.59;5072320;28;45486;-63
2022/01/04 06:25:46;;;;;;;;;58.33;47.67;;;;;8.00;83.40;98623.72;5074376;28;45391;-64
2022/01/04 06:28:12;;;;;;;;;57.00;45.00;;;;;8.00;83.07;98618.47;5073998;28;45546;-63
2022/01/04 06:30:37;;;;;;;;;55.67;40.33;;;;;8.01;83.20;98619.34;5075609;28;45396;-65
2022/01/04 06:33:03;;;;;;;;;57.00;45.00;;;;;8.00;83.10;98607.13;5073880;28;45463;-62
2022/01/04 06:35:30;;;;;;;;;55.33;45.00;;;;;8.00;83.35;98602.72;5075979;28;45439;-63
2022/01/04 06:37:56;;;;;;;;;54.00;44.33;;;;;8.03;83.11;98604.41;5074458;28;45579;-64
2022/01/04 06:40:22;;;;;;;;;59.00;44.67;;;;;8.04;83.36;98601.69;5074514;28;47485;-64
2022/01/04 06:42:47;;;;;;;;;60.00;47.00;;;;;8.03;83.42;98597.38;5074952;28;45451;-64
2022/01/04 06:45:14;;;;;;;;;61.33;48.67;;;;;8.04;83.40;98601.69;5068630;28;45428;-63
2022/01/04 06:47:39;;;;;;;;;55.00;46.00;;;;;8.01;83.45;98591.31;5075221;27;45487;-64
2022/01/04 06:50:06;;;;;;;;;54.00;45.00;;;;;7.97;83.10;98589.72;5071370;28;45431;-64
2022/01/04 06:52:32;;;;;;;;;49.00;40.00;;;;;7.89;83.04;98581.28;5075741;28;45428;-64
2022/01/04 06:54:57;;;;;;;;;52.67;42.00;;;;;7.83;83.06;98568.41;5069612;28;45441;-64
2022/01/04 06:57:23;;;;;;;;;54.00;44.00;;;;;7.78;83.50;98566.84;5076187;28;45423;-64
2022/01/04 06:59:49;;;;;;;;;45.67;38.33;;;;;7.74;83.35;98563.47;5070917;28;46078;-64
2022/01/04 07:02:14;;;;;;;;;52.67;43.00;;;;;7.74;83.71;98575.75;5075149;28;45408;-64
2022/01/04 07:04:40;;;;;;;;;52.33;41.67;;;;;7.69;83.79;98574.16;5068760;28;45442;-63
2022/01/04 07:07:05;;;;;;;;;56.00;46.67;;;;;7.69;84.13;98578.56;5076371;28;45443;-64
2022/01/04 07:09:30;;;;;;;;;31.67;31.00;;;;;7.65;83.92;98582.19;5068758;28;45582;-64
2022/01/04 07:11:57;;;;;;;;;44.00;40.00;;;;;7.55;84.31;98579.03;5074885;28;45411;-64
2022/01/04 07:14:23;;;;;;;;;49.33;41.67;;;;;7.45;84.22;98571.56;5072572;28;45456;-64
2022/01/04 07:16:48;;;;;;;;;37.33;35.33;;;;;7.37;84.26;98561.38;5069280;28;45386;-64
2022/01/04 07:19:15;;;;;;;;;42.00;37.00;;;;;7.32;84.28;98561.53;5071805;27;46057;-64
2022/01/04 07:21:40;;;;;;;;;40.33;37.33;;;;;7.28;84.53;98551.22;5063598;27;45562;-63
2022/01/04 07:24:06;;;;;;;;;48.00;41.00;;;;;7.27;84.39;98552.97;5068622;28;45480;-64
2022/01/04 07:26:31;;;;;;;;;55.33;45.00;;;;;7.28;84.97;98557.31;5062039;28;45657;-63
2022/01/04 07:28:57;;;;;;;;;54.00;44.33;;;;;7.27;85.20;98567.84;5066789;28;46404;-64
2022/01/04 07:31:24;;;;;;;;;55.00;45.67;;;;;7.19;85.12;98555.03;5071124;28;45463;-63
2022/01/04 07:33:49;;;;;;;;;53.33;42.00;;;;;7.12;85.58;98571.88;5070259;28;45473;-64
2022/01/04 07:36:15;;;;;;;;;51.67;41.00;;;;;7.10;85.86;98565.81;5075397;27;45407;-63
2022/01/04 07:38:42;;;;;;;;;56.33;44.33;;;;;7.08;86.02;98565.03;5070896;28;45461;-65
2022/01/04 07:41:08;;;;;;;;;51.00;41.00;;;;;7.05;86.61;98561.63;5073226;28;45429;-64
2022/01/04 07:43:33;;;;;;;;;48.67;42.00;;;;;7.03;86.21;98561.72;5073480;28;45503;-63
2022/01/04 07:45:59;;;;;;;;;55.67;40.33;;;;;7.03;86.17;98561.72;5071435;27;45519;-65
2022/01/04 07:48:24;;;;;;;;;37.00;34.33;;;;;7.08;84.99;98559.78;5063892;28;46563;-64
2022/01/04 07:50:51;;;;;;;;;40.67;36.00;;;;;7.18;84.90;98557.72;5073959;28;45420;-64
2022/01/04 07:53:16;;;;;;;;;37.00;32.00;;;;;7.28;85.22;98564.31;5070534;28;45424;-64
2022/01/04 07:55:42;;;;;;;;;46.33;39.33;;;;;7.37;84.95;98569.25;5074616;28;45352;-64
2022/01/04 07:58:08;;;;;;;;;52.00;42.00;;;;;7.47;84.94;98557.50;5071123;28;45589;-65
2022/01/04 08:00:33;;;;;;;;;55.67;43.67;;;;;7.57;85.23;98547.50;5073657;28;45507;-64
2022/01/04 08:02:58;;;;;;;;;52.33;44.00;;;;;7.67;84.96;98556.78;5069892;28;45801;-63
2022/01/04 08:05:24;;;;;;;;;57.33;46.67;;;;;7.75;85.09;98548.59;5072341;28;45477;-64
2022/01/04 08:07:50;;;;;;;;;52.33;43.33;;;;;7.83;84.95;98557.91;5073048;28;46206;-65
2022/01/04 08:10:17;;;;;;;;;56.00;44.67;;;;;7.90;84.74;98558.50;5070955;28;45411;-65
2022/01/04 08:12:43;;;;;;;;;56.33;45.33;;;;;7.97;84.29;98570.50;5072588;28;45416;-64
2022/01/04 08:15:10;;;;;;;;;52.00;40.00;;;;;8.00;83.95;98565.13;5066417;28;45390;-64
2022/01/04 08:17:36;;;;;;;;;51.67;41.67;;;;;7.98;83.28;98573.06;5073038;28;45722;-64
2022/01/04 08:20:04;;;;;;;;;49.00;40.00;;;;;7.92;83.41;98565.41;5068539;28;45325;-65
2022/01/04 08:22:34;;;;;;;;;43.00;36.33;;;;;7.89;83.02;98570.78;5074583;28;45397;-65
2022/01/04 08:25:02;;;;;;;;;37.00;34.67;;;;;7.89;82.90;98575.16;5067226;28;45313;-65
2022/01/04 08:27:28;;;;;;;;;45.00;37.00;;;;;7.88;83.03;98583.94;5073614;28;47095;-65
2022/01/04 08:29:53;;;;;;;;;47.00;40.00;;;;;7.83;82.77;98568.41;5070758;28;45547;-65
2022/01/04 08:32:19;;;;;;;;;39.33;36.33;;;;;7.85;83.09;98563.09;5070933;28;45530;-65
2022/01/04 08:34:44;;;;;;;;;44.33;37.00;;;;;7.86;83.09;98559.56;5072330;28;45468;-65
2022/01/04 08:37:10;;;;;;;;;40.00;36.33;;;;;7.88;83.31;98566.44;5074635;28;45496;-65
2022/01/04 08:39:35;;;;;;;;;44.67;36.33;;;;;7.88;83.39;98576.94;5065848;28;45544;-66
2022/01/04 08:42:02;;;;;;;;;43.33;37.00;;;;;7.90;83.66;98575.09;5070881;28;45515;-64
2022/01/04 08:44:29;;;;;;;;;45.00;36.00;;;;;7.92;84.41;98572.44;5068112;28;45420;-65
2022/01/04 08:47:00;;;;;;;;;38.00;34.00;;;;;7.97;84.21;98573.13;5064143;28;45362;-64
2022/01/04 08:49:26;;;;;;;;;42.00;34.33;;;;;8.01;84.83;98566.84;5073123;28;45395;-64
2022/01/04 08:51:51;;;;;;;;;37.67;33.33;;;;;8.05;84.90;98550.88;5074972;28;45461;-65
2022/01/04 08:54:17;;;;;;;;;39.67;35.00;;;;;8.07;84.92;98549.06;5067465;28;45500;-64
2022/01/04 08:56:43;;;;;;;;;40.00;34.33;;;;;8.11;85.22;98556.81;5074767;28;46930;-64
2022/01/04 08:59:13;;;;;;;;;41.67;38.00;;;;;8.16;85.45;98550.50;5068589;28;45505;-64
2022/01/04 09:01:39;;;;;;;;;43.67;35.33;;;;;8.24;85.50;98553.66;5074519;28;45338;-64
2022/01/04 09:04:06;;;;;;;;;40.00;36.33;;;;;8.33;85.21;98549.84;5064073;28;45602;-65
2022/01/04 09:06:32;;;;;;;;;45.00;37.67;;;;;8.43;84.76;98540.66;5074394;28;45478;-65
2022/01/04 09:08:57;;;;;;;;;40.33;36.00;;;;;8.53;84.67;98549.91;5068185;28;45337;-65
2022/01/04 09:11:24;;;;;;;;;43.33;37.00;;;;;8.59;84.72;98556.66;5074826;28;45403;-65
2022/01/04 09:13:53;;;;;;;;;41.00;33.33;;;;;8.62;84.85;98546.03;5068181;28;45562;-65
2022/01/04 09:19:03;;;;;;;;;42.00;33.33;;;;;8.70;84.86;98539.56;5069042;28;45593;-65
2022/01/04 09:21:29;;;;;;;;;37.67;33.33;;;;;8.73;85.28;98536.78;5069539;28;45380;-64
2022/01/04 09:23:57;;;;;;;;;30.00;29.33;;;;;8.78;85.09;98531.31;5067040;28;45421;-62
2022/01/04 09:26:24;;;;;;;;;33.00;29.67;;;;;8.85;85.09;98531.94;5071993;28;46052;-63
2022/01/04 09:28:50;;;;;;;;;32.33;29.67;;;;;8.92;85.10;98531.59;5071698;28;45495;-63
2022/01/04 09:31:15;;;;;;;;;31.33;29.33;;;;;8.99;85.30;98521.69;5071688;28;45344;-63
2022/01/04 09:33:42;;;;;;;;;30.67;25.67;;;;;9.08;85.09;98523.91;5063353;28;45486;-63
2022/01/04 09:36:07;;;;;;;;;30.00;30.00;;;;;9.16;85.11;98513.91;5066853;27;46533;-64
2022/01/04 09:38:33;;;;;;;;;36.33;32.00;;;;;9.27;84.85;98513.44;5067806;27;45513;-64
2022/01/04 09:40:59;;;;;;;;;37.00;31.67;;;;;9.38;84.56;98522.53;5066643;28;45501;-64
2022/01/04 09:43:25;;;;;;;;;32.67;28.00;;;;;9.40;84.40;98520.69;5076685;28;45621;-64
2022/01/04 09:45:52;;;;;;;;;34.67;29.00;;;;;9.45;84.30;98517.88;5073532;28;46292;-64
2022/01/04 09:48:19;;;;;;;;;31.33;28.00;;;;;9.49;84.17;98513.31;5075262;27;45313;-63
2022/01/04 09:50:46;;;;;;;;;29.33;29.33;;;;;9.52;84.65;98511.41;5079611;28;45528;-64
2022/01/04 09:53:19;;;;;;;;;31.00;27.33;;;;;9.54;84.46;98514.84;5077413;27;45570;-64
2022/01/04 09:55:47;;;;;;;;;28.67;26.33;;;;;9.54;84.46;98504.31;5068539;28;45471;-64
2022/01/04 09:58:12;;;;;;;;;32.00;29.33;;;;;9.54;84.75;98501.69;5078279;28;45529;-63
2022/01/04 10:00:38;;;;;;;;;23.33;21.33;;;;;9.52;84.93;98497.41;5071043;28;45455;-63
2022/01/04 10:03:17;;;;;;;;;26.33;23.00;;;;;9.55;85.02;98497.28;5068408;28;45553;-63
2022/01/04 10:05:43;;;;;;;;;25.00;24.33;;;;;9.55;84.84;98490.19;5080275;28;45449;-63
2022/01/04 10:08:10;;;;;;;;;26.33;22.00;;;;;9.58;84.83;98483.94;5075898;28;45361;-63
2022/01/04 10:10:37;;;;;;;;;32.33;29.67;;;;;9.58;85.02;98481.31;5110932;27;45360;-63
2022/01/04 10:13:12;;;;;;;;;30.67;29.33;;;;;9.60;85.05;98484.72;5078040;28;45240;-63
2022/01/04 10:15:46;;;;;;;;;25.67;25.67;;;;;9.61;85.20;98479.41;5079928;28;46077;-63
2022/01/04 10:18:14;;;;;;;;;33.33;28.67;;;;;9.66;85.26;98471.28;5074838;28;45554;-63
2022/01/04 10:20:59;;;;;;;;;32.00;28.67;;;;;9.70;85.18;98464.97;5075630;28;45498;-63
2022/01/04 10:23:25;;;;;;;;;31.50;27.25;;;;;9.75;84.96;98474.34;5076019;28;45520;-64
2022/01/04 10:26:00;;;;;;;;;27.33;22.33;;;;;9.79;85.16;98477.69;5073045;28;45429;-63
2022/01/04 10:28:32;;;;;;;;;31.00;25.33;;;;;9.85;85.08;98485.31;5067192;28;45389;-63
2022/01/04 10:31:02;;;;;;;;;28.75;26.00;;;;;9.93;84.83;98461.22;5078513;28;45404;-63
2022/01/04 10:33:31;;;;;;;;;21.75;18.75;;;;;9.99;84.62;98447.78;5077939;28;45232;-63
2022/01/04 10:35:58;;;;;;;;;21.25;14.75;;;;;10.03;84.25;98465.13;5079432;28;45400;-63
2022/01/04 10:38:33;;;;;;;;;18.50;17.50;;;;;10.07;84.04;98445.59;5077696;28;45539;-64
2022/01/04 10:41:06;;;;;;;;;22.25;19.75;;;;;10.15;83.84;98441.69;5073243;28;45525;-64
2022/01/04 10:43:36;;;;;;;;;24.50;21.75;;;;;10.23;83.70;98453.63;5077210;28;45496;-64
2022/01/04 10:46:02;;;;;;;;;28.33;26.33;;;;;10.27;82.84;98448.16;5076487;27;45575;-64
2022/01/04 10:48:31;;;;;;;;;26.25;21.00;;;;;10.32;83.01;98447.94;5068737;28;45422;-64
2022/01/04 10:51:04;;;;;;;;;24.50;23.75;;;;;10.36;82.83;98429.28;5075311;28;45353;-65
2022/01/04 10:53:37;;;;;;;;;26.00;21.75;;;;;10.43;82.38;98432.44;5072139;28;45393;-64
2022/01/04 10:56:06;;;;;;;;;23.50;21.00;;;;;10.49;82.13;98432.97;5076336;28;46184;-65
2022/01/04 10:58:42;;;;;;;;;27.00;22.50;;;;;10.57;81.81;98424.66;5069491;28;45626;-64
2022/01/04 11:01:10;;;;;;;;;23.75;20.25;;;;;10.64;81.51;98414.69;5074664;28;45458;-63
2022/01/04 11:03:38;;;;;;;;;22.75;22.00;;;;;10.71;80.90;98400.25;5068789;28;45466;-64
2022/01/04 11:06:13;;;;;;;;;16.75;14.50;;;;;10.79;80.61;98406.81;5074963;28;45994;-64
2022/01/04 11:08:40;;;;;;;;;28.75;23.25;;;;;10.86;80.33;98401.25;5067690;28;45438;-64
2022/01/04 11:11:06;;;;;;;;;25.00;23.75;;;;;10.92;80.04;98396.47;5076295;28;45463;-65
2022/01/04 11:13:31;;;;;;;;;27.00;25.75;;;;;10.99;80.19;98389.09;5069245;28;45458;-64
2022/01/04 11:15:57;;;;;;;;;27.50;20.25;;;;;11.06;79.45;98390.50;5075751;28;45840;-64
2022/01/04 11:18:24;;;;;;;;;25.00;24.25;;;;;11.11;79.49;98384.00;5070052;28;45515;-64
2022/01/04 11:20:51;;;;;;;;;29.25;24.50;;;;;11.14;79.40;98383.00;5072742;28;45484;-64
2022/01/04 11:23:22;;;;;;;;;20.25;18.00;;;;;11.17;79.52;98381.06;5072053;28;45580;-64
2022/01/04 11:25:48;;;;;;;;;28.00;26.75;;;;;11.20;78.94;98385.31;5073366;28;45191;-65
2022/01/04 11:28:15;;;;;;;;;29.25;26.25;;;;;11.22;78.56;98378.16;5071116;28;45692;-65